Time;durP1;ratioP1;P1;durP2;ratioP2;P2;SDS_P1;SDS_P2;PMS_P1;PMS_P2;Temp;Humidity;BMP_temperature;BMP_pressure;BME280_temperature;BME280_humidity;BME280_pressure;Samples;Min_cycle;Max_cycle;Signal;HPM_P1;HPM_P2
2021/12/04 00:02:26;;;;;;;2.00;1.10;;;5.70;99.90;5.50;99748.00;;;;5034534;28;20243;-86
2021/12/04 00:04:59;;;;;;;1.47;0.83;;;5.70;99.90;5.50;99777.00;;;;5034729;28;20202;-82
2021/12/04 00:07:29;;;;;;;0.70;0.70;;;5.70;99.90;5.40;99771.00;;;;5034356;28;20186;-82
2021/12/04 00:10:03;;;;;;;0.60;0.60;;;5.70;99.90;5.40;99775.00;;;;5033903;28;20167;-83
2021/12/04 00:12:34;;;;;;;1.30;1.20;;;5.70;99.90;5.30;99755.00;;;;5034208;28;20204;-82
2021/12/04 00:15:13;;;;;;;1.43;1.43;;;5.60;99.90;5.40;99778.00;;;;5032756;28;20560;-82
2021/12/04 00:17:42;;;;;;;0.40;0.40;;;5.70;99.90;5.60;99777.00;;;;5033843;28;20189;-82
2021/12/04 00:20:14;;;;;;;1.07;1.07;;;5.80;99.90;5.50;99778.00;;;;5034251;28;20178;-82
2021/12/04 00:22:45;;;;;;;0.67;0.67;;;5.80;99.90;5.40;99770.00;;;;5033022;28;20183;-82
2021/12/04 00:25:22;;;;;;;1.03;1.03;;;5.70;99.90;5.30;99756.00;;;;5034450;28;20212;-83
2021/12/04 00:27:51;;;;;;;1.20;1.10;;;5.70;99.90;5.50;99760.00;;;;5034586;28;20519;-83
2021/12/04 00:30:26;;;;;;;0.60;0.60;;;5.70;99.90;5.40;99751.00;;;;5035230;28;20181;-84
2021/12/04 00:32:59;;;;;;;0.83;0.83;;;5.60;99.90;5.30;99750.00;;;;5033293;28;20223;-84
2021/12/04 00:49:13;;;;;;;0.50;0.50;;;5.70;99.90;5.60;99743.00;;;;5032503;28;20280;-84
2021/12/04 00:51:55;;;;;;;0.40;0.40;;;5.70;99.90;5.80;99700.00;;;;5016029;28;20198;-85
2021/12/04 00:54:26;;;;;;;1.70;1.60;;;5.80;99.90;5.60;99725.00;;;;5032990;28;20188;-85
2021/12/04 00:56:55;;;;;;;1.07;1.07;;;5.80;99.90;5.70;99702.00;;;;5032801;28;20587;-85
2021/12/04 00:59:22;;;;;;;0.50;0.50;;;5.80;99.90;5.40;99728.00;;;;5033551;28;20244;-85
2021/12/04 01:01:50;;;;;;;0.40;0.40;;;5.80;99.90;5.80;99744.00;;;;5033422;28;20197;-84
2021/12/04 01:04:22;;;;;;;0.40;0.40;;;5.90;99.90;5.90;99729.00;;;;5032763;28;20185;-85
2021/12/04 01:06:49;;;;;;;1.17;1.13;;;5.90;99.90;6.20;99713.00;;;;5033324;28;20189;-85
2021/12/04 01:09:22;;;;;;;0.50;0.50;;;6.00;99.90;6.40;99743.00;;;;5033136;28;20183;-85
2021/12/04 01:11:53;;;;;;;0.40;0.40;;;6.10;99.90;6.10;99729.00;;;;5032194;28;20188;-85
2021/12/04 01:14:27;;;;;;;0.70;0.70;;;6.20;99.90;5.80;99721.00;;;;5033146;28;20184;-87
2021/12/04 01:16:58;;;;;;;0.40;0.40;;;6.00;99.90;5.80;99736.00;;;;5015126;28;20195;-86
2021/12/04 01:19:25;;;;;;;0.40;0.40;;;5.90;99.90;6.50;99745.00;;;;5032903;28;20183;-83
2021/12/04 01:21:53;;;;;;;0.50;0.50;;;6.20;99.90;6.70;99727.00;;;;5032843;28;20192;-87
2021/12/04 01:24:26;;;;;;;0.50;0.50;;;6.50;99.90;7.00;99731.00;;;;5033110;28;20206;-88
2021/12/04 01:26:57;;;;;;;0.50;0.50;;;6.60;99.90;6.90;99732.00;;;;5031498;28;20185;-87
2021/12/04 01:29:28;;;;;;;1.97;1.47;;;6.70;99.90;6.60;99712.00;;;;5032536;28;20187;-86
2021/12/04 01:31:59;;;;;;;0.60;0.60;;;6.50;99.90;6.20;99703.00;;;;5016197;28;20215;-87
2021/12/04 01:34:30;;;;;;;0.50;0.50;;;6.40;99.90;6.30;99704.00;;;;5032611;28;20322;-86
2021/12/04 01:37:05;;;;;;;0.50;0.50;;;6.30;99.90;6.20;99707.00;;;;5033792;28;20163;-85
2021/12/04 01:39:37;;;;;;;0.50;0.50;;;6.20;99.90;6.90;99699.00;;;;5033635;28;20196;-84
2021/12/04 01:42:08;;;;;;;0.50;0.50;;;6.40;99.90;7.20;99694.00;;;;5033177;28;20183;-85
2021/12/04 01:44:39;;;;;;;0.40;0.40;;;6.80;99.90;6.40;99691.00;;;;5014857;28;20241;-86
2021/12/04 01:47:19;;;;;;;0.90;0.70;;;6.50;99.90;6.40;99698.00;;;;5031896;28;20183;-86
2021/12/04 01:49:45;;;;;;;0.50;0.50;;;6.30;99.90;6.10;99677.00;;;;5032217;28;20638;-84
2021/12/04 01:52:20;;;;;;;0.50;0.50;;;6.30;99.90;5.80;99640.00;;;;5032604;28;20565;-84
2021/12/04 01:54:54;;;;;;;0.50;0.50;;;6.10;99.90;5.60;99670.00;;;;5032312;28;20195;-84
2021/12/04 01:57:29;;;;;;;0.40;0.40;;;6.00;99.90;5.90;99666.00;;;;5032062;28;20255;-84
2021/12/04 02:00:03;;;;;;;0.90;0.90;;;6.00;99.90;5.80;99665.00;;;;5033183;28;20260;-82
2021/12/04 02:02:31;;;;;;;0.40;0.40;;;6.00;99.90;6.20;99658.00;;;;5033226;28;20525;-83
2021/12/04 02:05:06;;;;;;;0.40;0.40;;;6.10;99.90;6.00;99673.00;;;;5031886;28;20230;-82
2021/12/04 02:07:34;;;;;;;0.40;0.40;;;6.10;99.90;6.00;99615.00;;;;5031969;28;20179;-83
2021/12/04 02:10:06;;;;;;;0.40;0.40;;;6.10;99.90;5.80;99648.00;;;;5032360;28;20193;-83
2021/12/04 02:12:40;;;;;;;0.50;0.50;;;6.10;99.90;6.30;99647.00;;;;5031751;28;20677;-83
2021/12/04 02:15:13;;;;;;;0.40;0.40;;;6.20;99.90;6.30;99645.00;;;;5032128;28;20756;-83
2021/12/04 02:17:40;;;;;;;1.67;1.67;;;6.30;99.90;6.30;99654.00;;;;5015067;28;20199;-83
2021/12/04 02:20:20;;;;;;;0.40;0.40;;;6.20;99.90;6.10;99653.00;;;;5031531;28;20167;-85
2021/12/04 02:22:58;;;;;;;0.50;0.50;;;6.20;99.90;6.10;99630.00;;;;5030961;28;20199;-84
2021/12/04 02:25:35;;;;;;;0.60;0.60;;;6.20;99.90;6.20;99647.00;;;;5033382;28;20186;-84
2021/12/04 02:28:11;;;;;;;0.40;0.40;;;6.10;99.90;6.30;99651.00;;;;5032339;28;20170;-86
2021/12/04 02:30:47;;;;;;;0.40;0.40;;;6.20;99.90;6.20;99627.00;;;;5032514;28;20271;-86
2021/12/04 02:33:20;;;;;;;0.40;0.40;;;6.20;99.90;6.30;99661.00;;;;5031855;28;20274;-86
2021/12/04 02:35:56;;;;;;;0.40;0.40;;;6.20;99.90;6.20;99644.00;;;;5031403;28;20185;-87
2021/12/04 02:38:30;;;;;;;0.40;0.40;;;6.20;99.90;5.90;99616.00;;;;5031686;28;20180;-86
2021/12/04 02:41:05;;;;;;;0.40;0.40;;;6.10;99.90;6.30;99657.00;;;;5032507;28;20180;-80
2021/12/04 02:43:41;;;;;;;0.40;0.40;;;6.20;99.90;6.40;99638.00;;;;5031357;28;20209;-80
2021/12/04 02:46:14;;;;;;;0.70;0.70;;;6.20;99.90;6.70;99642.00;;;;5033294;28;20181;-80
2021/12/04 02:48:51;;;;;;;0.60;0.60;;;6.40;99.90;6.70;99650.00;;;;5030145;28;20180;-81
2021/12/04 02:51:23;;;;;;;0.60;0.60;;;6.40;99.90;6.40;99642.00;;;;5031785;28;20251;-81
2021/12/04 02:53:53;;;;;;;0.50;0.50;;;6.40;99.90;6.20;99626.00;;;;5032235;28;20209;-81
2021/12/04 02:56:25;;;;;;;0.50;0.50;;;6.30;99.90;6.40;99630.00;;;;5030071;28;20647;-81
2021/12/04 02:59:03;;;;;;;0.97;0.97;;;6.30;99.90;6.00;99637.00;;;;5032372;28;20174;-80
2021/12/04 03:01:38;;;;;;;0.87;0.87;;;6.20;99.90;6.10;99587.00;;;;5031357;28;20201;-81
2021/12/04 03:04:13;;;;;;;2.07;1.30;;;6.20;99.90;6.10;99611.00;;;;5014065;28;20194;-84
2021/12/04 03:06:48;;;;;;;0.63;0.63;;;6.20;99.90;5.90;99636.00;;;;5031476;28;20190;-79
2021/12/04 03:09:17;;;;;;;0.40;0.40;;;6.10;99.90;6.20;99620.00;;;;5031556;28;20209;-78
2021/12/04 03:11:50;;;;;;;0.40;0.40;;;6.10;99.90;6.30;99629.00;;;;5013640;28;20232;-78
2021/12/04 03:14:17;;;;;;;0.63;0.63;;;6.20;99.90;6.40;99618.00;;;;5031521;28;20593;-83
2021/12/04 03:16:46;;;;;;;15.03;1.63;;;6.30;99.90;6.60;99611.00;;;;5030835;28;20208;-85
2021/12/04 03:19:17;;;;;;;0.60;0.60;;;6.40;99.90;6.90;99615.00;;;;5034062;28;20189;-86
2021/12/04 03:21:44;;;;;;;0.50;0.50;;;6.60;99.90;6.60;99626.00;;;;5034805;28;20179;-85
2021/12/04 03:24:13;;;;;;;0.97;0.97;;;6.60;99.90;6.20;99629.00;;;;5035419;28;20163;-86
2021/12/04 03:26:49;;;;;;;0.50;0.50;;;6.50;99.90;6.50;99592.00;;;;5033585;28;20206;-85
2021/12/04 03:29:18;;;;;;;0.50;0.50;;;6.30;99.90;6.40;99599.00;;;;5035393;28;20163;-86
2021/12/04 03:40:51;;;;;;;2.40;2.30;;;6.50;99.90;6.40;99569.00;;;;5033754;28;20281;-87
2021/12/04 03:43:23;;;;;;;0.47;0.47;;;6.50;99.90;7.00;99585.00;;;;5034109;28;20167;-86
2021/12/04 03:45:59;;;;;;;0.50;0.50;;;6.60;99.90;7.50;99575.00;;;;5034117;28;20173;-86
2021/12/04 03:51:06;;;;;;;1.17;1.17;;;6.80;99.90;7.40;99569.00;;;;5034607;28;20618;-84
2021/12/04 03:53:41;;;;;;;0.50;0.50;;;6.90;99.90;7.30;99573.00;;;;5018493;28;20189;-84
2021/12/04 03:56:14;;;;;;;0.60;0.60;;;6.90;99.90;6.70;99562.00;;;;5036163;28;20608;-84
2021/12/04 03:58:48;;;;;;;1.13;1.13;;;6.70;99.90;6.80;99547.00;;;;5033957;28;20200;-83
2021/12/04 04:01:17;;;;;;;0.40;0.40;;;6.50;99.90;7.00;99572.00;;;;5034058;28;20262;-83
2021/12/04 04:03:48;;;;;;;0.50;0.50;;;6.70;99.90;6.80;99571.00;;;;5017036;28;20175;-83
2021/12/04 04:06:19;;;;;;;0.60;0.60;;;6.60;99.90;6.80;99554.00;;;;5034675;28;20192;-83
2021/12/04 04:08:53;;;;;;;0.70;0.70;;;6.60;99.90;6.20;99570.00;;;;5034366;28;20216;-83
2021/12/04 04:11:22;;;;;;;0.50;0.50;;;6.50;99.90;6.30;99575.00;;;;5033528;28;20171;-83
2021/12/04 04:13:53;;;;;;;0.47;0.47;;;6.30;99.90;6.50;99576.00;;;;5033361;28;20193;-83
2021/12/04 04:16:29;;;;;;;0.50;0.50;;;6.40;99.90;6.60;99594.00;;;;5034232;28;20279;-83
2021/12/04 04:19:00;;;;;;;0.50;0.50;;;6.50;99.90;6.30;99572.00;;;;5015742;28;20192;-83
2021/12/04 04:21:31;;;;;;;0.40;0.40;;;6.40;99.90;6.40;99565.00;;;;5033075;28;20633;-83
2021/12/04 04:24:02;;;;;;;0.50;0.50;;;6.40;99.90;6.40;99578.00;;;;5017067;28;20186;-83
2021/12/04 04:26:31;;;;;;;1.27;0.80;;;6.30;99.90;6.90;99567.00;;;;5034454;28;20199;-82
2021/12/04 04:29:00;;;;;;;0.60;0.60;;;6.40;99.90;7.10;99549.00;;;;5034162;28;20214;-82
2021/12/04 04:31:32;;;;;;;1.57;1.57;;;6.60;99.90;6.80;99506.00;;;;5034114;28;20600;-83
2021/12/04 04:34:07;;;;;;;0.50;0.50;;;6.60;99.90;6.60;99513.00;;;;5034031;28;20207;-82
2021/12/04 04:39:37;;;;;;;0.50;0.50;;;6.60;99.90;6.90;99546.00;;;;5033880;28;20189;-84
2021/12/04 05:01:53;;;;;;;0.50;0.50;;;6.20;99.90;6.50;99532.00;;;;5033375;28;20196;-84
2021/12/04 05:15:16;;;;;;;0.43;0.43;;;6.20;99.90;6.20;99533.00;;;;5034279;28;20649;-86
2021/12/04 05:18:06;;;;;;;0.47;0.47;;;6.20;99.90;5.90;99535.00;;;;5032889;28;20188;-87
2021/12/04 05:20:37;;;;;;;1.03;1.03;;;6.10;99.90;5.90;99544.00;;;;5033352;28;20181;-87
2021/12/04 05:23:15;;;;;;;1.13;0.50;;;6.10;99.90;5.90;99562.00;;;;5033631;28;20643;-86
2021/12/04 05:25:44;;;;;;;0.50;0.50;;;6.00;99.90;6.20;99544.00;;;;5016062;28;20259;-86
2021/12/04 05:28:12;;;;;;;4.00;3.60;;;6.10;99.90;5.90;99539.00;;;;5034279;28;20180;-87
2021/12/04 05:30:46;;;;;;;0.43;0.43;;;6.10;99.90;5.80;99542.00;;;;5034107;28;20175;-84
2021/12/04 05:33:16;;;;;;;0.67;0.67;;;6.00;99.90;5.90;99539.00;;;;5032604;28;20243;-86
2021/12/04 05:35:41;;;;;;;0.40;0.40;;;6.00;99.90;6.00;99544.00;;;;5032792;28;20185;-85
2021/12/04 05:38:13;;;;;;;0.40;0.40;;;6.10;99.90;6.10;99549.00;;;;5016402;28;20193;-85
2021/12/04 05:40:39;;;;;;;0.40;0.40;;;6.10;99.90;6.10;99536.00;;;;5032451;28;20620;-85
2021/12/04 05:43:11;;;;;;;0.60;0.60;;;6.10;99.90;5.70;99541.00;;;;5032581;28;20183;-82
2021/12/04 05:45:52;;;;;;;0.30;0.30;;;5.90;99.90;5.90;99551.00;;;;5032585;28;20176;-84
2021/12/04 05:48:29;;;;;;;0.47;0.47;;;5.90;99.90;6.10;99523.00;;;;5033961;28;20225;-84
2021/12/04 05:56:29;;;;;;;1.63;1.53;;;5.90;99.90;5.80;99540.00;;;;5033416;28;20193;-83
2021/12/04 05:58:59;;;;;;;1.37;1.37;;;5.90;99.90;5.90;99500.00;;;;5032581;28;20215;-82
2021/12/04 06:01:26;;;;;;;0.40;0.40;;;6.00;99.90;5.80;99518.00;;;;5032102;28;20242;-83
2021/12/04 06:04:00;;;;;;;0.40;0.40;;;6.00;99.90;5.90;99514.00;;;;5032724;28;20258;-86
2021/12/04 06:06:31;;;;;;;0.67;0.67;;;5.90;99.90;5.90;99481.00;;;;5032163;28;20188;-85
2021/12/04 06:09:04;;;;;;;0.93;0.93;;;6.00;99.90;5.90;99498.00;;;;5033832;28;20232;-85
2021/12/04 06:11:32;;;;;;;0.63;0.63;;;6.00;99.90;6.10;99497.00;;;;5030378;28;20698;-82
2021/12/04 06:14:04;;;;;;;2.00;1.90;;;6.00;99.90;6.10;99476.00;;;;5032415;28;20185;-81
2021/12/04 06:16:36;;;;;;;0.40;0.40;;;6.00;99.90;6.20;99533.00;;;;5015175;28;20203;-81
2021/12/04 06:19:12;;;;;;;0.60;0.60;;;6.10;99.90;6.30;99493.00;;;;5015481;28;20186;-85
2021/12/04 06:24:28;;;;;;;0.40;0.40;;;6.10;99.90;6.20;99537.00;;;;5032448;28;20251;-85
2021/12/04 06:26:57;;;;;;;0.40;0.40;;;6.10;99.90;6.30;99528.00;;;;5031664;28;20183;-85
2021/12/04 06:29:24;;;;;;;0.50;0.50;;;6.20;99.90;6.20;99525.00;;;;5032813;28;20634;-84
2021/12/04 06:31:53;;;;;;;0.50;0.50;;;6.20;99.90;6.40;99522.00;;;;5031346;28;20213;-85
2021/12/04 06:34:18;;;;;;;1.03;1.03;;;6.30;99.90;6.50;99522.00;;;;5031954;28;20184;-85
2021/12/04 06:36:47;;;;;;;1.37;1.23;;;6.40;99.90;6.40;99510.00;;;;5032015;28;20239;-81
2021/12/04 06:39:16;;;;;;;0.40;0.40;;;6.40;99.90;6.60;99501.00;;;;5031801;28;20181;-84
2021/12/04 06:41:48;;;;;;;0.53;0.53;;;6.50;99.90;6.20;99503.00;;;;5032974;28;20196;-84
2021/12/04 06:44:17;;;;;;;0.40;0.40;;;6.30;99.90;6.30;99503.00;;;;5030783;28;20181;-84
2021/12/04 06:46:46;;;;;;;0.70;0.70;;;6.30;99.90;6.20;99524.00;;;;5032041;28;20186;-84
2021/12/04 06:49:43;;;;;;;0.53;0.53;;;6.30;99.90;6.20;99519.00;;;;5031781;28;20199;-84
2021/12/04 06:52:19;;;;;;;0.50;0.50;;;6.20;99.90;6.10;99519.00;;;;5030967;28;20306;-83
2021/12/04 06:55:02;;;;;;;0.50;0.50;;;6.30;99.90;6.10;99521.00;;;;5034643;28;20560;-81
2021/12/04 06:57:38;;;;;;;0.50;0.50;;;6.20;99.90;6.40;99520.00;;;;5020999;28;20627;-82
2021/12/04 07:00:13;;;;;;;0.40;0.40;;;6.30;99.90;6.50;99500.00;;;;5035425;28;20190;-83
2021/12/04 07:02:45;;;;;;;0.50;0.50;;;6.40;99.90;6.40;99507.00;;;;5019839;28;20189;-85
2021/12/04 07:05:26;;;;;;;0.40;0.40;;;6.40;99.90;6.10;99498.00;;;;5035868;28;20193;-84
2021/12/04 07:08:05;;;;;;;0.40;0.40;;;6.30;99.90;6.00;99522.00;;;;5019023;28;20186;-80
2021/12/04 07:10:39;;;;;;;0.40;0.40;;;6.20;99.90;6.00;99508.00;;;;5035515;28;20553;-76
2021/12/04 07:13:18;;;;;;;0.53;0.53;;;6.10;99.90;6.30;99505.00;;;;5035763;28;20254;-81
2021/12/04 07:16:01;;;;;;;1.00;1.00;;;6.30;99.90;6.30;99487.00;;;;5034960;28;20187;-78
2021/12/04 07:18:35;;;;;;;1.90;1.50;;;6.30;99.90;6.40;99489.00;;;;5035895;28;20179;-76
2021/12/04 07:21:10;;;;;;;2.90;2.70;;;6.40;99.90;6.60;99481.00;;;;5019084;28;20272;-78
2021/12/04 07:23:47;;;;;;;2.23;0.90;;;6.40;99.90;6.10;99485.00;;;;5035327;28;20204;-77
2021/12/04 07:26:27;;;;;;;1.40;1.40;;;6.30;99.90;6.00;99466.00;;;;5018449;28;20186;-77
2021/12/04 07:29:04;;;;;;;0.50;0.50;;;6.20;99.90;6.10;99447.00;;;;5019371;28;20191;-76
2021/12/04 07:31:43;;;;;;;0.50;0.50;;;6.20;99.90;6.40;99451.00;;;;5014614;28;20556;-76
2021/12/04 07:34:17;;;;;;;0.60;0.60;;;6.30;99.90;6.50;99468.00;;;;4998124;28;20202;-79
2021/12/04 07:36:54;;;;;;;1.97;1.07;;;6.50;99.90;6.30;99461.00;;;;5016390;28;20182;-79
2021/12/04 07:39:33;;;;;;;0.87;0.87;;;6.40;99.90;6.30;99455.00;;;;4998604;28;20190;-80
2021/12/04 07:42:08;;;;;;;0.50;0.50;;;6.30;99.90;6.70;99447.00;;;;4999439;28;20285;-79
2021/12/04 07:44:43;;;;;;;0.40;0.40;;;6.40;99.90;6.50;99458.00;;;;4999236;28;20185;-78
2021/12/04 07:47:15;;;;;;;2.43;1.80;;;6.40;99.90;6.60;99456.00;;;;4998782;28;20182;-78
2021/12/04 07:49:51;;;;;;;0.60;0.60;;;6.40;99.90;6.40;99446.00;;;;5015242;28;20185;-78
2021/12/04 07:52:25;;;;;;;1.00;1.00;;;6.40;99.90;6.20;99443.00;;;;5013987;28;20600;-78
2021/12/04 07:54:59;;;;;;;1.30;1.30;;;6.30;99.90;6.20;99445.00;;;;5015948;28;20180;-78
2021/12/04 07:57:37;;;;;;;0.50;0.50;;;6.30;99.90;6.10;99443.00;;;;5014676;28;20265;-78
2021/12/04 08:00:17;;;;;;;1.80;1.43;;;6.20;99.90;5.80;99424.00;;;;5047908;28;20212;-78
2021/12/04 08:02:48;;;;;;;0.70;0.70;;;6.10;99.90;6.30;99455.00;;;;5015824;28;20177;-78
2021/12/04 08:05:28;;;;;;;0.93;0.87;;;6.20;99.90;6.40;99455.00;;;;4997328;28;20657;-78
2021/12/04 08:08:05;;;;;;;4.67;2.67;;;6.30;99.90;6.00;99450.00;;;;4998865;28;20188;-78
2021/12/04 08:10:36;;;;;;;0.77;0.77;;;6.20;99.90;6.10;99445.00;;;;4998492;28;20632;-78
2021/12/04 08:13:10;;;;;;;6.90;1.40;;;6.20;99.90;5.90;99428.00;;;;5013833;28;20259;-80
2021/12/04 08:15:44;;;;;;;0.93;0.93;;;6.10;99.90;5.80;99369.00;;;;5014166;28;20500;-82
2021/12/04 08:18:23;;;;;;;0.57;0.57;;;6.10;99.90;5.70;99419.00;;;;5015801;28;20265;-81
2021/12/04 08:20:59;;;;;;;1.03;1.03;;;6.00;99.90;6.40;99412.00;;;;5014155;28;20217;-82
2021/12/04 08:23:27;;;;;;;1.40;1.20;;;6.10;99.90;6.50;99418.00;;;;5015395;28;20188;-77
2021/12/04 08:25:59;;;;;;;2.83;2.40;;;6.30;99.90;6.10;99411.00;;;;5015558;28;20183;-84
2021/12/04 08:28:25;;;;;;;2.37;2.03;;;6.30;99.90;6.30;99431.00;;;;4997360;28;20179;-81
2021/12/04 08:30:57;;;;;;;0.83;0.80;;;6.30;99.90;5.90;99428.00;;;;4997586;28;20186;-81
2021/12/04 08:33:28;;;;;;;2.43;1.33;;;6.20;99.90;6.20;99401.00;;;;5014204;28;20681;-79
2021/12/04 08:35:58;;;;;;;0.40;0.40;;;6.20;99.90;6.00;99402.00;;;;4998179;28;20192;-80
2021/12/04 08:38:27;;;;;;;1.43;1.33;;;6.10;99.90;6.20;99437.00;;;;4996477;28;20182;-81
2021/12/04 08:41:02;;;;;;;1.93;1.17;;;6.20;99.90;5.90;99441.00;;;;5014132;28;20272;-81
2021/12/04 08:43:28;;;;;;;0.33;0.33;;;6.30;99.90;6.00;99420.00;;;;5014253;28;20174;-81
2021/12/04 08:45:54;;;;;;;1.37;1.27;;;6.20;99.90;6.60;99431.00;;;;5014186;28;20180;-75
2021/12/04 08:48:20;;;;;;;0.60;0.60;;;6.40;99.90;6.80;99384.00;;;;5015226;28;20168;-75
2021/12/04 08:50:47;;;;;;;0.90;0.90;;;6.60;99.90;6.40;99431.00;;;;5013596;28;20172;-75
2021/12/04 08:53:15;;;;;;;0.80;0.80;;;6.50;99.90;6.50;99428.00;;;;5013113;28;20210;-75
2021/12/04 08:55:46;;;;;;;0.70;0.70;;;6.50;99.90;6.40;99385.00;;;;4997681;28;20629;-76
2021/12/04 08:58:15;;;;;;;0.40;0.40;;;6.50;99.90;6.50;99379.00;;;;5028160;28;20186;-75
2021/12/04 09:01:00;;;;;;;0.60;0.60;;;6.50;99.90;6.10;99412.00;;;;5033444;28;20183;-76
2021/12/04 09:03:34;;;;;;;0.70;0.70;;;6.40;99.90;6.20;99417.00;;;;5016846;28;20186;-76
2021/12/04 09:06:05;;;;;;;0.73;0.73;;;6.40;99.90;5.90;99398.00;;;;5033179;28;20654;-76
2021/12/04 09:08:34;;;;;;;0.73;0.73;;;6.30;99.90;6.10;99409.00;;;;5016923;28;20212;-76
2021/12/04 09:11:20;;;;;;;1.43;1.33;;;6.30;99.90;6.50;99387.00;;;;5033040;28;20183;-76
2021/12/04 09:13:52;;;;;;;0.97;0.97;;;6.40;99.90;6.50;99390.00;;;;5032395;28;20682;-76
2021/12/04 09:16:20;;;;;;;0.57;0.57;;;6.60;99.90;6.70;99371.00;;;;5015818;28;20193;-76
2021/12/04 09:18:49;;;;;;;0.70;0.70;;;6.70;99.90;6.80;99333.00;;;;5016537;28;20193;-76
2021/12/04 09:21:20;;;;;;;0.50;0.50;;;6.70;99.90;6.90;99349.00;;;;5032874;28;20250;-76
2021/12/04 09:24:00;;;;;;;0.40;0.40;;;6.90;99.90;6.90;99368.00;;;;5016320;28;20183;-76
2021/12/04 09:40:36;;;;;;;2.00;1.90;;;7.20;99.90;7.00;99406.00;;;;5032826;28;20260;-72
2021/12/04 10:03:02;;;;;;;0.40;0.40;;;6.80;99.90;7.30;99410.00;;;;5032240;28;20424;-73
2021/12/04 10:11:49;;;;;;;2.43;1.00;;;7.00;99.90;6.40;99401.00;;;;5029588;28;20324;-71
2021/12/04 10:17:59;;;;;;;0.70;0.70;;;6.70;99.90;6.70;99401.00;;;;5031843;28;20284;-71
2021/12/04 10:33:20;;;;;;;0.30;0.30;;;6.50;99.90;6.50;99394.00;;;;5094091;27;1277317;-73
2021/12/04 10:35:48;;;;;;;0.30;0.30;;;6.60;99.90;6.60;99395.00;;;;5111877;28;20287;-73
2021/12/04 10:38:26;;;;;;;0.30;0.30;;;6.60;99.90;7.20;99397.00;;;;5113323;28;20204;-73
2021/12/04 10:40:54;;;;;;;0.50;0.50;;;7.00;99.90;6.60;99390.00;;;;5106421;28;20178;-73
2021/12/04 10:43:30;;;;;;;0.40;0.40;;;6.80;99.90;7.50;99401.00;;;;5112964;28;20189;-73
2021/12/04 10:46:13;;;;;;;1.17;1.10;;;7.10;99.90;6.70;99392.00;;;;5129513;28;20226;-74
2021/12/04 10:48:48;;;;;;;1.23;1.23;;;6.90;99.90;6.50;99388.00;;;;5130554;28;20169;-74
2021/12/04 10:51:25;;;;;;;0.90;0.87;;;6.80;99.90;6.30;99385.00;;;;5130713;27;20200;-73
2021/12/04 10:54:14;;;;;;;1.03;1.03;;;6.70;99.90;6.40;99387.00;;;;5129912;28;20227;-75
2021/12/04 11:04:39;;;;;;;8.60;4.57;;;6.50;99.90;6.70;99381.00;;;;5129850;28;20549;-82
2021/12/04 11:21:38;;;;;;;1.10;1.10;;;6.50;99.90;6.20;99382.00;;;;5112194;28;20238;-78
2021/12/04 11:24:38;;;;;;;2.43;2.23;;;6.50;99.90;6.00;99382.00;;;;5129366;28;20229;-75
2021/12/04 11:43:13;;;;;;;2.10;2.00;;;6.60;99.90;6.40;99368.00;;;;5123355;28;20206;-78
2021/12/04 11:46:13;;;;;;;4.10;2.30;;;6.60;99.90;6.60;99366.00;;;;5108842;28;20544;-81
2021/12/04 11:48:41;;;;;;;1.60;1.50;;;6.70;99.90;6.30;99359.00;;;;5096298;28;20187;-78
2021/12/04 11:51:22;;;;;;;2.00;1.83;;;6.60;99.90;6.40;99363.00;;;;5094306;28;20211;-78
2021/12/04 11:53:53;;;;;;;3.00;1.80;;;6.70;99.90;6.40;99361.00;;;;5094530;28;20162;-79
2021/12/04 11:56:25;;;;;;;5.20;4.37;;;6.70;99.90;6.50;99344.00;;;;5078442;28;20186;-78
2021/12/04 11:58:53;;;;;;;3.67;2.23;;;6.70;99.90;6.40;99348.00;;;;5097851;28;20183;-79
2021/12/04 12:01:33;;;;;;;5.67;3.87;;;6.70;99.90;6.30;99321.00;;;;5098007;28;20184;-78
2021/12/04 12:04:09;;;;;;;2.50;2.40;;;6.60;99.90;6.60;99339.00;;;;5097646;28;20244;-78
2021/12/04 12:06:43;;;;;;;3.30;2.80;;;6.70;99.90;6.50;99310.00;;;;5115012;28;20261;-78
2021/12/04 12:09:15;;;;;;;4.57;2.10;;;6.70;99.90;6.80;99330.00;;;;5098057;28;20182;-78
2021/12/04 12:12:12;;;;;;;3.70;2.80;;;6.80;99.90;6.70;99348.00;;;;5087090;28;20208;-77
2021/12/04 12:14:51;;;;;;;10.77;4.00;;;6.90;99.90;6.70;99322.00;;;;5094431;28;20206;-76
2021/12/04 12:17:38;;;;;;;4.43;2.57;;;6.90;99.90;6.90;99343.00;;;;5077264;28;20186;-76
2021/12/04 12:20:10;;;;;;;3.70;3.43;;;7.00;99.90;7.10;99344.00;;;;5094372;28;20269;-77
2021/12/04 12:22:50;;;;;;;0.80;0.80;;;7.00;99.90;7.40;99299.00;;;;5077847;28;20222;-77
2021/12/04 12:33:35;;;;;;;0.40;0.40;;;6.90;99.90;7.00;99364.00;;;;5094310;28;20255;-76
2021/12/04 12:36:14;;;;;;;1.30;1.10;;;7.00;99.90;6.90;99358.00;;;;5101443;28;20185;-75
2021/12/04 12:38:55;;;;;;;11.90;5.73;;;7.10;99.90;7.10;99354.00;;;;5109554;28;20173;-75
2021/12/04 12:41:45;;;;;;;7.00;4.80;;;7.10;99.90;7.00;99361.00;;;;5107970;28;20594;-75
2021/12/04 12:44:27;;;;;;;15.87;1.80;;;7.20;99.90;6.90;99348.00;;;;5093914;28;20186;-75
2021/12/04 12:47:17;;;;;;;17.20;5.27;;;7.00;99.90;6.80;99355.00;;;;5087985;28;20203;-75
2021/12/04 12:49:49;;;;;;;2.07;1.97;;;7.00;99.90;7.00;99354.00;;;;5086519;28;20635;-75
2021/12/04 12:52:27;;;;;;;4.50;3.97;;;7.10;99.90;7.00;99352.00;;;;5094988;28;20206;-74
2021/12/04 12:55:06;;;;;;;10.13;4.70;;;7.10;99.90;6.80;99361.00;;;;5075359;28;20623;-75
2021/12/04 12:57:45;;;;;;;1.20;1.10;;;7.10;99.90;7.20;99362.00;;;;5076396;28;20551;-74
2021/12/04 13:11:52;;;;;;;0.67;0.67;;;7.40;99.90;7.40;99367.00;;;;5099269;28;20242;-75
2021/12/04 13:14:34;;;;;;;1.30;1.27;;;7.50;99.90;7.80;99364.00;;;;5113778;28;20264;-76
2021/12/04 13:17:07;;;;;;;4.53;3.37;;;7.60;99.90;8.10;99329.00;;;;5096505;28;20208;-76
2021/12/04 13:19:40;;;;;;;0.40;0.40;;;7.90;99.90;8.30;99365.00;;;;5112958;28;20176;-75
2021/12/04 13:22:19;;;;;;;0.60;0.60;;;7.90;99.90;8.10;99369.00;;;;5091934;28;20192;-76
2021/12/04 13:24:54;;;;;;;3.77;3.13;;;8.00;99.90;8.40;99374.00;;;;5084044;28;20281;-75
2021/12/04 13:30:03;;;;;;;0.70;0.67;;;8.10;99.90;8.10;99383.00;;;;5095515;28;20563;-75
2021/12/04 13:32:47;;;;;;;0.73;0.73;;;8.10;99.90;8.30;99380.00;;;;5077146;28;20210;-76
2021/12/04 13:35:23;;;;;;;0.83;0.83;;;8.20;99.90;8.20;99381.00;;;;5093480;28;20180;-76
2021/12/04 13:37:58;;;;;;;1.53;1.53;;;8.10;99.90;7.90;99388.00;;;;5091836;28;20181;-75
2021/12/04 13:40:29;;;;;;;0.60;0.60;;;8.10;99.90;8.20;99352.00;;;;5079400;28;20187;-75
2021/12/04 13:42:57;;;;;;;0.50;0.50;;;8.10;99.90;8.50;99385.00;;;;5111242;28;20186;-75
2021/12/04 13:45:26;;;;;;;0.50;0.50;;;8.20;99.90;8.20;99390.00;;;;5100507;28;20185;-75
2021/12/04 13:47:59;;;;;;;0.70;0.70;;;8.10;99.90;8.00;99398.00;;;;5092633;28;20187;-75
2021/12/04 13:53:33;;;;;;;1.23;0.90;;;8.10;99.90;7.90;99409.00;;;;5091577;28;20580;-75
2021/12/04 13:56:16;;;;;;;0.80;0.80;;;7.90;99.90;7.90;99362.00;;;;5050652;28;20281;-76
2021/12/04 13:58:48;;;;;;;1.10;1.10;;;7.90;99.90;8.20;99416.00;;;;5033944;28;20280;-75
2021/12/04 14:01:16;;;;;;;0.70;0.70;;;8.00;99.90;8.30;99419.00;;;;5026463;28;20196;-75
2021/12/04 14:03:44;;;;;;;0.57;0.57;;;8.10;99.90;8.60;99413.00;;;;5034051;28;20644;-75
2021/12/04 14:06:17;;;;;;;1.20;1.13;;;8.30;99.90;8.30;99426.00;;;;5050914;28;20776;-75
2021/12/04 14:08:59;;;;;;;0.60;0.60;;;8.30;99.90;8.60;99417.00;;;;5033910;28;20666;-76
2021/12/04 14:11:40;;;;;;;1.07;1.07;;;8.30;99.90;8.80;99420.00;;;;5028454;28;20213;-76
2021/12/04 14:14:16;;;;;;;0.97;0.97;;;8.40;99.90;8.90;99415.00;;;;5070240;28;20247;-76
2021/12/04 14:16:46;;;;;;;0.87;0.87;;;8.60;99.90;8.60;99419.00;;;;5052263;28;20197;-78
2021/12/04 14:19:24;;;;;;;0.50;0.50;;;8.40;99.90;8.40;99423.00;;;;5053664;28;20184;-75
2021/12/04 14:22:05;;;;;;;0.87;0.87;;;8.30;99.90;8.30;99422.00;;;;5053497;28;20390;-75
2021/12/04 14:24:46;;;;;;;0.70;0.70;;;8.10;99.90;7.80;99433.00;;;;5036300;28;20200;-75
2021/12/04 14:27:21;;;;;;;1.00;1.00;;;7.90;99.90;7.90;99397.00;;;;5089266;28;20189;-76
2021/12/04 14:29:56;;;;;;;0.43;0.43;;;7.90;99.90;7.90;99430.00;;;;5094875;28;20269;-75
2021/12/04 14:32:29;;;;;;;2.20;1.53;;;7.90;99.90;7.30;99448.00;;;;5094776;28;20217;-75
2021/12/04 14:35:03;;;;;;;0.53;0.53;;;7.70;99.90;7.40;99445.00;;;;5111366;28;20514;-75
2021/12/04 14:37:40;;;;;;;1.80;1.47;;;7.60;99.90;7.30;99450.00;;;;5095408;28;20201;-75
2021/12/04 14:40:16;;;;;;;1.00;0.80;;;7.50;99.90;7.40;99450.00;;;;5111939;28;20259;-75
2021/12/04 14:42:46;;;;;;;0.80;0.80;;;7.40;99.90;7.10;99450.00;;;;5082877;28;20230;-75
2021/12/04 14:45:31;;;;;;;3.60;2.30;;;7.30;99.90;7.50;99459.00;;;;5074612;28;20499;-76
2021/12/04 14:48:03;;;;;;;0.40;0.40;;;7.40;99.90;7.40;99449.00;;;;5091838;28;20268;-76